Kamloops Airport
CYKA : now visible

Airfield :











YOU CAN JOIN US ON...

 
LOGIN :

Register | Disclaimer

   EN    FR    IT 

 









Legend :    VFR   Marginal VFR   IFR   Intensive IFR   Very Intensive IFR
Visi :
Ceiling :
>= 8 km
>= 3000ft
5 to 8 km
1000 to 3000 ft
1500m to 5 km
500 to 1000 ft
800 to 1500m
200 to 500 ft
< 800m
< 200 ft
Symbols :   Thunderstorms  Fog  Heavy snow  Heavy precipitations  Wind > 20 kt






- Airport Elevation : 1133 ft
- IATA code : YKA


CYKA - Kamloops

CURRENT METAR :
  • 080700Z 25016KT 40SM FEW020 FEW080 SCT110 02/M05 A2992 RMK SC1AC2AC1 SC TR SLP148

EXPIRED METARs :
  • 080600Z 27019G24KT 40SM FEW020 BKN081 BKN110 02/M04 A2989 RMK SC1AC5AC1 SC TR SLP140
  • 080500Z 27023KT 15SM FEW020 OVC061 03/M04 A2987 RMK SF2SC6 SLP131
  • 080419Z 27015G26KT 20SM -RA FEW020 OVC042 02/M02 A2987 RMK SF1SC7 PRESRR SLP132

TAF TAF CYKA
Valid from the 08 at 07:00 until the 08 at 19:00 UTC


080638Z 0807/0819 27015G25KT P6SM SCT020 BKN080
TEMPO 0807/0809 BKN020
BECMG 0807/0809 27010KT
FM080900 27010KT P6SM SCT020
TEMPO 0809/0819 27012G22KT
PROB30 0809/0812 BKN020 RMK NXT FCST BY 081300Z



MET'MAP, your aeronautical weather chart ! - Copyright ORBIFLY December 2007 - Disclaimer

ORBIFLY MET'MAP TEAM :

Programming & Development : Alexandra Zaïnal
Concept & original design : Baudouin d'Aumeries
Assistance for programming : Marc-Olivier Méhu
Technical & hardware support : Manuel Goepfert

Contact : metmap@orbifly.com




SOURCES & CREDITS :

   NOAA       Earth
Advisory